sensor_id;sensor_type;location;lat;lon;timestamp;P1;durP1;ratioP1;P2;durP2;ratioP2
43809;SDS011;29440;48.208;11.162;2022-10-22T00:00:47;2.55;;;0.65;;
43809;SDS011;29440;48.208;11.162;2022-10-22T00:03:13;1.13;;;0.65;;
43809;SDS011;29440;48.208;11.162;2022-10-22T00:05:38;2.97;;;0.70;;
43809;SDS011;29440;48.208;11.162;2022-10-22T00:08:04;3.85;;;0.95;;
43809;SDS011;29440;48.208;11.162;2022-10-22T00:10:29;3.67;;;0.80;;
43809;SDS011;29440;48.208;11.162;2022-10-22T00:12:55;4.30;;;0.95;;
43809;SDS011;29440;48.208;11.162;2022-10-22T00:15:20;4.82;;;0.80;;
43809;SDS011;29440;48.208;11.162;2022-10-22T00:17:46;2.72;;;0.70;;
43809;SDS011;29440;48.208;11.162;2022-10-22T00:20:13;2.25;;;0.60;;
43809;SDS011;29440;48.208;11.162;2022-10-22T00:22:39;1.08;;;0.52;;
43809;SDS011;29440;48.208;11.162;2022-10-22T00:25:05;3.53;;;0.70;;
43809;SDS011;29440;48.208;11.162;2022-10-22T00:27:30;1.83;;;0.60;;
43809;SDS011;29440;48.208;11.162;2022-10-22T00:29:56;2.20;;;0.60;;
43809;SDS011;29440;48.208;11.162;2022-10-22T00:32:22;4.05;;;0.60;;
43809;SDS011;29440;48.208;11.162;2022-10-22T00:34:47;2.38;;;0.70;;
43809;SDS011;29440;48.208;11.162;2022-10-22T00:37:13;1.55;;;0.90;;
43809;SDS011;29440;48.208;11.162;2022-10-22T00:39:38;2.45;;;0.65;;
43809;SDS011;29440;48.208;11.162;2022-10-22T00:42:04;2.28;;;0.70;;
43809;SDS011;29440;48.208;11.162;2022-10-22T00:47:24;1.67;;;0.73;;
43809;SDS011;29440;48.208;11.162;2022-10-22T00:49:54;2.83;;;0.73;;
43809;SDS011;29440;48.208;11.162;2022-10-22T00:52:21;4.93;;;0.75;;
43809;SDS011;29440;48.208;11.162;2022-10-22T00:54:47;1.75;;;0.77;;
43809;SDS011;29440;48.208;11.162;2022-10-22T00:57:15;4.97;;;0.77;;
43809;SDS011;29440;48.208;11.162;2022-10-22T00:59:42;1.58;;;1.10;;
43809;SDS011;29440;48.208;11.162;2022-10-22T01:02:08;3.05;;;0.75;;
43809;SDS011;29440;48.208;11.162;2022-10-22T01:04:33;3.05;;;0.75;;
43809;SDS011;29440;48.208;11.162;2022-10-22T01:06:59;4.53;;;0.80;;
43809;SDS011;29440;48.208;11.162;2022-10-22T01:09:41;4.57;;;0.60;;
43809;SDS011;29440;48.208;11.162;2022-10-22T01:15:01;1.67;;;0.60;;
43809;SDS011;29440;48.208;11.162;2022-10-22T01:25:34;3.08;;;0.70;;
43809;SDS011;29440;48.208;11.162;2022-10-22T01:28:12;3.40;;;0.68;;
43809;SDS011;29440;48.208;11.162;2022-10-22T01:31:00;3.17;;;0.65;;
43809;SDS011;29440;48.208;11.162;2022-10-22T01:33:28;7.88;;;0.60;;
43809;SDS011;29440;48.208;11.162;2022-10-22T01:35:56;2.95;;;0.80;;
43809;SDS011;29440;48.208;11.162;2022-10-22T01:38:24;1.63;;;0.70;;
43809;SDS011;29440;48.208;11.162;2022-10-22T01:40:50;3.35;;;0.70;;
43809;SDS011;29440;48.208;11.162;2022-10-22T01:43:16;2.60;;;0.50;;
43809;SDS011;29440;48.208;11.162;2022-10-22T01:45:46;4.95;;;0.43;;
43809;SDS011;29440;48.208;11.162;2022-10-22T01:53:35;1.13;;;0.57;;
43809;SDS011;29440;48.208;11.162;2022-10-22T02:04:33;3.75;;;0.45;;
43809;SDS011;29440;48.208;11.162;2022-10-22T02:07:05;5.05;;;0.60;;
43809;SDS011;29440;48.208;11.162;2022-10-22T02:09:34;2.95;;;0.50;;
43809;SDS011;29440;48.208;11.162;2022-10-22T02:12:02;1.48;;;0.43;;
43809;SDS011;29440;48.208;11.162;2022-10-22T02:14:30;2.35;;;0.50;;
43809;SDS011;29440;48.208;11.162;2022-10-22T02:16:58;3.03;;;0.50;;
43809;SDS011;29440;48.208;11.162;2022-10-22T02:19:26;2.42;;;0.57;;
43809;SDS011;29440;48.208;11.162;2022-10-22T02:22:03;4.22;;;0.70;;
43809;SDS011;29440;48.208;11.162;2022-10-22T02:24:29;3.78;;;0.90;;
43809;SDS011;29440;48.208;11.162;2022-10-22T02:29:46;1.70;;;0.75;;
43809;SDS011;29440;48.208;11.162;2022-10-22T02:32:20;3.15;;;0.80;;
43809;SDS011;29440;48.208;11.162;2022-10-22T02:34:51;1.33;;;0.70;;
43809;SDS011;29440;48.208;11.162;2022-10-22T02:37:19;1.40;;;0.60;;
43809;SDS011;29440;48.208;11.162;2022-10-22T02:39:46;1.85;;;0.70;;
43809;SDS011;29440;48.208;11.162;2022-10-22T02:42:12;2.88;;;0.80;;
43809;SDS011;29440;48.208;11.162;2022-10-22T02:44:38;2.22;;;0.50;;
43809;SDS011;29440;48.208;11.162;2022-10-22T02:47:07;4.63;;;0.60;;
43809;SDS011;29440;48.208;11.162;2022-10-22T02:49:33;1.42;;;0.68;;
43809;SDS011;29440;48.208;11.162;2022-10-22T02:51:58;2.03;;;0.60;;
43809;SDS011;29440;48.208;11.162;2022-10-22T02:54:24;0.95;;;0.60;;
43809;SDS011;29440;48.208;11.162;2022-10-22T02:56:50;1.77;;;0.70;;
43809;SDS011;29440;48.208;11.162;2022-10-22T02:59:16;1.92;;;0.90;;
43809;SDS011;29440;48.208;11.162;2022-10-22T03:01:41;1.42;;;0.70;;
43809;SDS011;29440;48.208;11.162;2022-10-22T03:04:07;1.83;;;0.70;;
43809;SDS011;29440;48.208;11.162;2022-10-22T03:06:33;2.15;;;0.63;;
43809;SDS011;29440;48.208;11.162;2022-10-22T03:08:58;1.40;;;0.80;;
43809;SDS011;29440;48.208;11.162;2022-10-22T03:11:24;1.95;;;0.70;;
43809;SDS011;29440;48.208;11.162;2022-10-22T03:13:49;1.27;;;0.80;;
43809;SDS011;29440;48.208;11.162;2022-10-22T03:16:15;2.63;;;0.80;;
43809;SDS011;29440;48.208;11.162;2022-10-22T03:18:41;1.55;;;0.60;;
43809;SDS011;29440;48.208;11.162;2022-10-22T03:21:08;1.85;;;0.70;;
43809;SDS011;29440;48.208;11.162;2022-10-22T03:23:55;1.98;;;0.77;;
43809;SDS011;29440;48.208;11.162;2022-10-22T03:26:22;2.10;;;0.73;;
43809;SDS011;29440;48.208;11.162;2022-10-22T03:28:48;2.33;;;0.60;;
43809;SDS011;29440;48.208;11.162;2022-10-22T03:31:14;1.15;;;0.60;;
43809;SDS011;29440;48.208;11.162;2022-10-22T03:33:39;1.90;;;0.57;;
43809;SDS011;29440;48.208;11.162;2022-10-22T03:36:05;1.13;;;0.60;;
43809;SDS011;29440;48.208;11.162;2022-10-22T03:38:33;2.90;;;0.68;;
43809;SDS011;29440;48.208;11.162;2022-10-22T03:41:01;1.40;;;0.50;;
43809;SDS011;29440;48.208;11.162;2022-10-22T03:43:27;3.33;;;0.43;;
43809;SDS011;29440;48.208;11.162;2022-10-22T03:45:52;2.70;;;0.65;;
43809;SDS011;29440;48.208;11.162;2022-10-22T03:48:18;3.03;;;0.40;;
43809;SDS011;29440;48.208;11.162;2022-10-22T03:50:43;1.55;;;0.40;;
43809;SDS011;29440;48.208;11.162;2022-10-22T03:53:09;1.33;;;0.47;;
43809;SDS011;29440;48.208;11.162;2022-10-22T03:55:35;0.90;;;0.40;;
43809;SDS011;29440;48.208;11.162;2022-10-22T03:58:02;0.80;;;0.30;;
43809;SDS011;29440;48.208;11.162;2022-10-22T04:00:29;2.72;;;0.30;;
43809;SDS011;29440;48.208;11.162;2022-10-22T04:02:54;0.70;;;0.38;;
43809;SDS011;29440;48.208;11.162;2022-10-22T04:05:20;0.80;;;0.32;;
43809;SDS011;29440;48.208;11.162;2022-10-22T04:07:46;1.27;;;0.40;;
43809;SDS011;29440;48.208;11.162;2022-10-22T04:10:11;1.02;;;0.38;;
43809;SDS011;29440;48.208;11.162;2022-10-22T04:12:37;1.00;;;0.40;;
43809;SDS011;29440;48.208;11.162;2022-10-22T04:15:03;0.43;;;0.30;;
43809;SDS011;29440;48.208;11.162;2022-10-22T04:17:33;0.95;;;0.30;;
43809;SDS011;29440;48.208;11.162;2022-10-22T04:20:00;1.02;;;0.80;;
43809;SDS011;29440;48.208;11.162;2022-10-22T04:22:26;0.55;;;0.30;;
43809;SDS011;29440;48.208;11.162;2022-10-22T04:24:52;1.73;;;0.60;;
43809;SDS011;29440;48.208;11.162;2022-10-22T04:27:17;0.82;;;0.38;;
43809;SDS011;29440;48.208;11.162;2022-10-22T04:29:43;0.73;;;0.32;;
43809;SDS011;29440;48.208;11.162;2022-10-22T04:32:09;0.70;;;0.25;;
43809;SDS011;29440;48.208;11.162;2022-10-22T04:34:34;3.72;;;1.65;;
43809;SDS011;29440;48.208;11.162;2022-10-22T04:37:00;3.60;;;0.38;;
43809;SDS011;29440;48.208;11.162;2022-10-22T04:39:25;0.52;;;0.20;;
43809;SDS011;29440;48.208;11.162;2022-10-22T04:41:51;0.80;;;0.30;;
43809;SDS011;29440;48.208;11.162;2022-10-22T04:44:17;0.43;;;0.20;;
43809;SDS011;29440;48.208;11.162;2022-10-22T04:46:42;0.57;;;0.30;;
43809;SDS011;29440;48.208;11.162;2022-10-22T04:49:08;0.82;;;0.20;;
43809;SDS011;29440;48.208;11.162;2022-10-22T04:51:33;0.30;;;0.20;;
43809;SDS011;29440;48.208;11.162;2022-10-22T04:53:59;0.20;;;0.20;;
43809;SDS011;29440;48.208;11.162;2022-10-22T04:56:26;0.38;;;0.20;;
43809;SDS011;29440;48.208;11.162;2022-10-22T05:01:30;0.68;;;0.30;;
43809;SDS011;29440;48.208;11.162;2022-10-22T05:06:24;0.30;;;0.20;;
43809;SDS011;29440;48.208;11.162;2022-10-22T05:08:54;0.50;;;0.25;;
43809;SDS011;29440;48.208;11.162;2022-10-22T05:11:27;3.42;;;0.30;;
43809;SDS011;29440;48.208;11.162;2022-10-22T05:13:55;1.40;;;0.20;;
43809;SDS011;29440;48.208;11.162;2022-10-22T05:16:22;0.40;;;0.20;;
43809;SDS011;29440;48.208;11.162;2022-10-22T05:18:49;2.22;;;0.30;;
43809;SDS011;29440;48.208;11.162;2022-10-22T05:21:17;1.85;;;0.28;;
43809;SDS011;29440;48.208;11.162;2022-10-22T05:23:44;1.13;;;0.20;;
43809;SDS011;29440;48.208;11.162;2022-10-22T05:26:12;0.22;;;0.22;;
43809;SDS011;29440;48.208;11.162;2022-10-22T05:28:39;0.50;;;0.15;;
43809;SDS011;29440;48.208;11.162;2022-10-22T05:31:06;0.50;;;0.20;;
43809;SDS011;29440;48.208;11.162;2022-10-22T05:33:33;0.70;;;0.10;;
43809;SDS011;29440;48.208;11.162;2022-10-22T05:35:59;0.20;;;0.17;;
43809;SDS011;29440;48.208;11.162;2022-10-22T05:38:25;3.72;;;0.30;;
43809;SDS011;29440;48.208;11.162;2022-10-22T05:40:58;0.73;;;0.30;;
43809;SDS011;29440;48.208;11.162;2022-10-22T05:43:34;1.30;;;0.20;;
43809;SDS011;29440;48.208;11.162;2022-10-22T05:46:04;0.52;;;0.30;;
43809;SDS011;29440;48.208;11.162;2022-10-22T05:48:34;0.75;;;0.20;;
43809;SDS011;29440;48.208;11.162;2022-10-22T05:51:01;3.85;;;0.40;;
43809;SDS011;29440;48.208;11.162;2022-10-22T05:53:34;8.57;;;0.50;;
43809;SDS011;29440;48.208;11.162;2022-10-22T05:56:02;1.10;;;0.40;;
43809;SDS011;29440;48.208;11.162;2022-10-22T05:58:30;0.43;;;0.30;;
43809;SDS011;29440;48.208;11.162;2022-10-22T06:01:06;1.65;;;0.17;;
43809;SDS011;29440;48.208;11.162;2022-10-22T06:03:35;0.30;;;0.20;;
43809;SDS011;29440;48.208;11.162;2022-10-22T06:06:02;2.00;;;0.20;;
43809;SDS011;29440;48.208;11.162;2022-10-22T06:08:31;4.03;;;0.15;;
43809;SDS011;29440;48.208;11.162;2022-10-22T06:10:57;0.10;;;0.10;;
43809;SDS011;29440;48.208;11.162;2022-10-22T06:13:24;0.77;;;0.20;;
43809;SDS011;29440;48.208;11.162;2022-10-22T06:15:50;0.10;;;0.10;;
43809;SDS011;29440;48.208;11.162;2022-10-22T06:18:17;1.38;;;0.20;;
43809;SDS011;29440;48.208;11.162;2022-10-22T06:20:43;0.30;;;0.20;;
43809;SDS011;29440;48.208;11.162;2022-10-22T06:23:09;0.57;;;0.25;;
43809;SDS011;29440;48.208;11.162;2022-10-22T06:25:35;0.43;;;0.30;;
43809;SDS011;29440;48.208;11.162;2022-10-22T06:28:00;0.20;;;0.10;;
43809;SDS011;29440;48.208;11.162;2022-10-22T06:30:26;0.47;;;0.10;;
43809;SDS011;29440;48.208;11.162;2022-10-22T06:32:51;0.10;;;0.10;;
43809;SDS011;29440;48.208;11.162;2022-10-22T06:35:17;1.05;;;0.10;;
43809;SDS011;29440;48.208;11.162;2022-10-22T06:37:43;0.10;;;0.10;;
43809;SDS011;29440;48.208;11.162;2022-10-22T06:40:08;0.35;;;0.13;;
43809;SDS011;29440;48.208;11.162;2022-10-22T06:42:35;3.67;;;0.20;;
43809;SDS011;29440;48.208;11.162;2022-10-22T06:45:00;1.52;;;0.10;;
43809;SDS011;29440;48.208;11.162;2022-10-22T06:47:26;0.08;;;0.08;;
43809;SDS011;29440;48.208;11.162;2022-10-22T06:49:51;1.85;;;0.20;;
43809;SDS011;29440;48.208;11.162;2022-10-22T06:52:17;0.38;;;0.20;;
43809;SDS011;29440;48.208;11.162;2022-10-22T06:54:42;0.38;;;0.20;;
43809;SDS011;29440;48.208;11.162;2022-10-22T06:57:08;1.52;;;0.20;;
43809;SDS011;29440;48.208;11.162;2022-10-22T06:59:33;2.40;;;1.67;;
43809;SDS011;29440;48.208;11.162;2022-10-22T07:01:59;4.57;;;4.15;;
43809;SDS011;29440;48.208;11.162;2022-10-22T07:04:25;1.70;;;1.58;;
43809;SDS011;29440;48.208;11.162;2022-10-22T07:06:53;3.92;;;3.53;;
43809;SDS011;29440;48.208;11.162;2022-10-22T07:09:20;2.33;;;1.50;;
43809;SDS011;29440;48.208;11.162;2022-10-22T07:11:45;0.85;;;0.50;;
43809;SDS011;29440;48.208;11.162;2022-10-22T07:14:11;1.20;;;0.70;;
43809;SDS011;29440;48.208;11.162;2022-10-22T07:16:38;2.08;;;0.40;;
43809;SDS011;29440;48.208;11.162;2022-10-22T07:19:06;2.63;;;0.30;;
43809;SDS011;29440;48.208;11.162;2022-10-22T07:21:31;1.13;;;0.40;;
43809;SDS011;29440;48.208;11.162;2022-10-22T07:23:57;0.38;;;0.38;;
43809;SDS011;29440;48.208;11.162;2022-10-22T07:26:23;0.30;;;0.20;;
43809;SDS011;29440;48.208;11.162;2022-10-22T07:28:49;2.20;;;0.20;;
43809;SDS011;29440;48.208;11.162;2022-10-22T07:31:15;1.80;;;0.30;;
43809;SDS011;29440;48.208;11.162;2022-10-22T07:33:42;0.45;;;0.30;;
43809;SDS011;29440;48.208;11.162;2022-10-22T07:36:10;1.52;;;0.40;;
43809;SDS011;29440;48.208;11.162;2022-10-22T07:38:41;0.70;;;0.40;;
43809;SDS011;29440;48.208;11.162;2022-10-22T07:41:11;0.40;;;0.30;;
43809;SDS011;29440;48.208;11.162;2022-10-22T07:43:38;0.30;;;0.20;;
43809;SDS011;29440;48.208;11.162;2022-10-22T07:46:03;0.60;;;0.30;;
43809;SDS011;29440;48.208;11.162;2022-10-22T07:48:29;1.38;;;0.40;;
43809;SDS011;29440;48.208;11.162;2022-10-22T07:50:55;0.30;;;0.30;;
43809;SDS011;29440;48.208;11.162;2022-10-22T07:53:22;0.50;;;0.30;;
43809;SDS011;29440;48.208;11.162;2022-10-22T07:55:48;0.22;;;0.20;;
43809;SDS011;29440;48.208;11.162;2022-10-22T07:58:17;0.30;;;0.20;;
43809;SDS011;29440;48.208;11.162;2022-10-22T08:00:43;3.55;;;0.20;;
43809;SDS011;29440;48.208;11.162;2022-10-22T08:03:10;2.08;;;0.20;;
43809;SDS011;29440;48.208;11.162;2022-10-22T08:05:36;6.18;;;1.13;;
43809;SDS011;29440;48.208;11.162;2022-10-22T08:08:03;0.50;;;0.22;;
43809;SDS011;29440;48.208;11.162;2022-10-22T08:10:29;1.40;;;0.73;;
43809;SDS011;29440;48.208;11.162;2022-10-22T08:12:55;2.10;;;0.70;;
43809;SDS011;29440;48.208;11.162;2022-10-22T08:15:21;1.10;;;0.70;;
43809;SDS011;29440;48.208;11.162;2022-10-22T08:17:48;1.60;;;0.40;;
43809;SDS011;29440;48.208;11.162;2022-10-22T08:20:14;1.40;;;0.60;;
43809;SDS011;29440;48.208;11.162;2022-10-22T08:22:40;0.60;;;0.30;;
43809;SDS011;29440;48.208;11.162;2022-10-22T08:25:05;2.58;;;0.40;;
43809;SDS011;29440;48.208;11.162;2022-10-22T08:27:31;0.28;;;0.20;;
43809;SDS011;29440;48.208;11.162;2022-10-22T08:29:57;2.72;;;0.20;;
43809;SDS011;29440;48.208;11.162;2022-10-22T08:32:22;1.48;;;0.17;;
43809;SDS011;29440;48.208;11.162;2022-10-22T08:34:48;0.30;;;0.20;;
43809;SDS011;29440;48.208;11.162;2022-10-22T08:37:14;1.75;;;0.38;;
43809;SDS011;29440;48.208;11.162;2022-10-22T08:39:41;3.13;;;0.38;;
43809;SDS011;29440;48.208;11.162;2022-10-22T08:47:51;0.85;;;0.30;;
43809;SDS011;29440;48.208;11.162;2022-10-22T08:50:33;0.20;;;0.20;;
43809;SDS011;29440;48.208;11.162;2022-10-22T08:53:04;2.72;;;0.20;;
43809;SDS011;29440;48.208;11.162;2022-10-22T08:55:36;0.20;;;0.20;;
43809;SDS011;29440;48.208;11.162;2022-10-22T09:06:08;1.08;;;0.20;;
43809;SDS011;29440;48.208;11.162;2022-10-22T09:08:44;2.20;;;0.40;;
43809;SDS011;29440;48.208;11.162;2022-10-22T09:13:36;0.28;;;0.20;;
43809;SDS011;29440;48.208;11.162;2022-10-22T09:24:26;4.60;;;0.30;;
43809;SDS011;29440;48.208;11.162;2022-10-22T09:26:52;0.30;;;0.28;;
43809;SDS011;29440;48.208;11.162;2022-10-22T09:29:20;0.40;;;0.30;;
43809;SDS011;29440;48.208;11.162;2022-10-22T09:31:55;0.45;;;0.20;;
43809;SDS011;29440;48.208;11.162;2022-10-22T09:34:21;0.95;;;0.30;;
43809;SDS011;29440;48.208;11.162;2022-10-22T09:36:46;0.40;;;0.30;;
43809;SDS011;29440;48.208;11.162;2022-10-22T09:39:22;1.08;;;0.20;;
43809;SDS011;29440;48.208;11.162;2022-10-22T09:41:50;0.40;;;0.28;;
43809;SDS011;29440;48.208;11.162;2022-10-22T09:44:16;0.73;;;0.20;;
43809;SDS011;29440;48.208;11.162;2022-10-22T09:46:43;0.90;;;0.50;;
43809;SDS011;29440;48.208;11.162;2022-10-22T09:49:20;1.20;;;0.57;;
43809;SDS011;29440;48.208;11.162;2022-10-22T09:51:57;1.30;;;0.70;;
43809;SDS011;29440;48.208;11.162;2022-10-22T09:54:25;3.70;;;1.30;;
43809;SDS011;29440;48.208;11.162;2022-10-22T09:57:01;2.75;;;1.20;;
43809;SDS011;29440;48.208;11.162;2022-10-22T09:59:31;2.90;;;1.27;;
43809;SDS011;29440;48.208;11.162;2022-10-22T10:02:22;3.37;;;0.60;;
43809;SDS011;29440;48.208;11.162;2022-10-22T10:04:55;7.15;;;1.40;;
43809;SDS011;29440;48.208;11.162;2022-10-22T10:07:26;2.85;;;1.10;;
43809;SDS011;29440;48.208;11.162;2022-10-22T10:09:55;3.97;;;0.97;;
43809;SDS011;29440;48.208;11.162;2022-10-22T10:23:53;0.40;;;0.20;;
43809;SDS011;29440;48.208;11.162;2022-10-22T10:37:24;0.25;;;0.20;;
43809;SDS011;29440;48.208;11.162;2022-10-22T10:42:43;0.50;;;0.20;;
43809;SDS011;29440;48.208;11.162;2022-10-22T10:45:16;0.43;;;0.20;;
43809;SDS011;29440;48.208;11.162;2022-10-22T10:50:50;1.23;;;0.20;;
43809;SDS011;29440;48.208;11.162;2022-10-22T10:56:54;2.28;;;0.30;;
43809;SDS011;29440;48.208;11.162;2022-10-22T11:07:39;1.30;;;0.30;;
43809;SDS011;29440;48.208;11.162;2022-10-22T11:10:13;0.60;;;0.20;;
43809;SDS011;29440;48.208;11.162;2022-10-22T11:12:52;0.52;;;0.20;;
43809;SDS011;29440;48.208;11.162;2022-10-22T11:18:09;1.50;;;0.17;;
43809;SDS011;29440;48.208;11.162;2022-10-22T11:20:43;0.17;;;0.17;;
43809;SDS011;29440;48.208;11.162;2022-10-22T11:23:31;0.57;;;0.20;;
43809;SDS011;29440;48.208;11.162;2022-10-22T11:26:42;1.02;;;0.20;;
43809;SDS011;29440;48.208;11.162;2022-10-22T11:29:23;0.47;;;0.13;;
43809;SDS011;29440;48.208;11.162;2022-10-22T11:31:52;0.40;;;0.40;;
43809;SDS011;29440;48.208;11.162;2022-10-22T11:34:37;0.20;;;0.10;;
43809;SDS011;29440;48.208;11.162;2022-10-22T11:37:11;2.35;;;0.13;;
43809;SDS011;29440;48.208;11.162;2022-10-22T11:39:46;0.55;;;0.10;;
43809;SDS011;29440;48.208;11.162;2022-10-22T11:42:38;0.68;;;0.30;;
43809;SDS011;29440;48.208;11.162;2022-10-22T11:55:55;0.47;;;0.20;;
43809;SDS011;29440;48.208;11.162;2022-10-22T12:00:52;2.03;;;0.20;;
43809;SDS011;29440;48.208;11.162;2022-10-22T12:06:14;2.65;;;0.30;;
43809;SDS011;29440;48.208;11.162;2022-10-22T12:11:35;3.05;;;0.20;;
43809;SDS011;29440;48.208;11.162;2022-10-22T12:14:19;0.28;;;0.20;;
43809;SDS011;29440;48.208;11.162;2022-10-22T12:16:55;0.47;;;0.20;;
43809;SDS011;29440;48.208;11.162;2022-10-22T12:19:39;0.40;;;0.20;;
43809;SDS011;29440;48.208;11.162;2022-10-22T12:22:19;0.95;;;0.30;;
43809;SDS011;29440;48.208;11.162;2022-10-22T12:24:48;0.73;;;0.20;;
43809;SDS011;29440;48.208;11.162;2022-10-22T12:27:34;0.40;;;0.10;;
43809;SDS011;29440;48.208;11.162;2022-10-22T12:30:15;2.50;;;0.30;;
43809;SDS011;29440;48.208;11.162;2022-10-22T12:32:53;1.13;;;0.28;;
43809;SDS011;29440;48.208;11.162;2022-10-22T12:35:23;0.32;;;0.30;;
43809;SDS011;29440;48.208;11.162;2022-10-22T12:37:51;1.20;;;0.20;;
43809;SDS011;29440;48.208;11.162;2022-10-22T12:40:31;2.42;;;0.30;;
43809;SDS011;29440;48.208;11.162;2022-10-22T12:42:59;2.13;;;0.30;;
43809;SDS011;29440;48.208;11.162;2022-10-22T12:45:46;0.55;;;0.30;;
43809;SDS011;29440;48.208;11.162;2022-10-22T12:48:14;1.92;;;0.30;;
43809;SDS011;29440;48.208;11.162;2022-10-22T12:50:46;0.95;;;0.30;;
43809;SDS011;29440;48.208;11.162;2022-10-22T12:53:16;1.65;;;0.30;;
43809;SDS011;29440;48.208;11.162;2022-10-22T12:55:46;3.53;;;0.30;;
43809;SDS011;29440;48.208;11.162;2022-10-22T12:58:15;1.08;;;0.30;;
43809;SDS011;29440;48.208;11.162;2022-10-22T13:00:44;1.23;;;0.20;;
43809;SDS011;29440;48.208;11.162;2022-10-22T13:03:10;0.93;;;0.30;;
43809;SDS011;29440;48.208;11.162;2022-10-22T13:05:49;0.75;;;0.30;;
43809;SDS011;29440;48.208;11.162;2022-10-22T13:08:16;0.70;;;0.40;;
43809;SDS011;29440;48.208;11.162;2022-10-22T13:10:49;1.67;;;0.32;;
43809;SDS011;29440;48.208;11.162;2022-10-22T13:13:31;1.02;;;0.30;;
43809;SDS011;29440;48.208;11.162;2022-10-22T13:16:11;1.38;;;0.40;;
43809;SDS011;29440;48.208;11.162;2022-10-22T13:18:38;1.17;;;0.50;;
43809;SDS011;29440;48.208;11.162;2022-10-22T13:21:04;2.58;;;0.63;;
43809;SDS011;29440;48.208;11.162;2022-10-22T13:23:31;1.67;;;0.38;;
43809;SDS011;29440;48.208;11.162;2022-10-22T13:28:27;1.88;;;0.35;;
43809;SDS011;29440;48.208;11.162;2022-10-22T13:30:57;1.17;;;0.30;;
43809;SDS011;29440;48.208;11.162;2022-10-22T13:33:52;2.47;;;0.32;;
43809;SDS011;29440;48.208;11.162;2022-10-22T13:36:22;2.25;;;0.28;;
43809;SDS011;29440;48.208;11.162;2022-10-22T13:38:48;2.97;;;0.22;;
43809;SDS011;29440;48.208;11.162;2022-10-22T13:41:21;1.02;;;0.30;;
43809;SDS011;29440;48.208;11.162;2022-10-22T13:43:56;2.22;;;0.35;;
43809;SDS011;29440;48.208;11.162;2022-10-22T13:46:22;1.15;;;0.35;;
43809;SDS011;29440;48.208;11.162;2022-10-22T13:48:49;1.92;;;0.30;;
43809;SDS011;29440;48.208;11.162;2022-10-22T13:51:18;1.55;;;0.30;;
43809;SDS011;29440;48.208;11.162;2022-10-22T13:53:46;3.28;;;0.30;;
43809;SDS011;29440;48.208;11.162;2022-10-22T13:56:14;1.25;;;0.40;;
43809;SDS011;29440;48.208;11.162;2022-10-22T13:58:41;0.70;;;0.30;;
43809;SDS011;29440;48.208;11.162;2022-10-22T14:01:10;2.05;;;0.38;;
43809;SDS011;29440;48.208;11.162;2022-10-22T14:03:52;4.70;;;0.30;;
43809;SDS011;29440;48.208;11.162;2022-10-22T14:06:21;1.60;;;0.30;;
43809;SDS011;29440;48.208;11.162;2022-10-22T14:08:48;1.10;;;0.40;;
43809;SDS011;29440;48.208;11.162;2022-10-22T14:11:20;1.17;;;0.35;;
43809;SDS011;29440;48.208;11.162;2022-10-22T14:13:45;1.90;;;0.32;;
43809;SDS011;29440;48.208;11.162;2022-10-22T14:16:14;1.05;;;0.25;;
43809;SDS011;29440;48.208;11.162;2022-10-22T14:18:43;2.70;;;0.40;;
43809;SDS011;29440;48.208;11.162;2022-10-22T14:21:09;1.63;;;0.20;;
43809;SDS011;29440;48.208;11.162;2022-10-22T14:23:36;3.35;;;0.40;;
43809;SDS011;29440;48.208;11.162;2022-10-22T14:26:05;1.13;;;0.30;;
43809;SDS011;29440;48.208;11.162;2022-10-22T14:28:33;1.83;;;0.38;;
43809;SDS011;29440;48.208;11.162;2022-10-22T14:30:58;1.08;;;0.30;;
43809;SDS011;29440;48.208;11.162;2022-10-22T14:33:25;1.13;;;0.30;;
43809;SDS011;29440;48.208;11.162;2022-10-22T14:35:54;1.90;;;0.40;;
43809;SDS011;29440;48.208;11.162;2022-10-22T14:38:19;1.58;;;0.45;;
43809;SDS011;29440;48.208;11.162;2022-10-22T14:40:45;3.22;;;0.60;;
43809;SDS011;29440;48.208;11.162;2022-10-22T14:43:13;0.85;;;0.30;;
43809;SDS011;29440;48.208;11.162;2022-10-22T14:45:44;2.58;;;0.32;;
43809;SDS011;29440;48.208;11.162;2022-10-22T14:48:10;3.17;;;0.40;;
43809;SDS011;29440;48.208;11.162;2022-10-22T14:50:35;1.92;;;0.30;;
43809;SDS011;29440;48.208;11.162;2022-10-22T14:53:01;1.35;;;0.30;;
43809;SDS011;29440;48.208;11.162;2022-10-22T14:55:26;3.13;;;0.38;;
43809;SDS011;29440;48.208;11.162;2022-10-22T15:00:21;0.95;;;0.38;;
43809;SDS011;29440;48.208;11.162;2022-10-22T15:02:46;0.65;;;0.30;;
43809;SDS011;29440;48.208;11.162;2022-10-22T15:05:12;1.90;;;0.40;;
43809;SDS011;29440;48.208;11.162;2022-10-22T15:07:39;1.55;;;0.30;;
43809;SDS011;29440;48.208;11.162;2022-10-22T15:10:06;1.10;;;0.20;;
43809;SDS011;29440;48.208;11.162;2022-10-22T15:12:32;1.33;;;0.38;;
43809;SDS011;29440;48.208;11.162;2022-10-22T15:14:58;1.60;;;0.40;;
43809;SDS011;29440;48.208;11.162;2022-10-22T15:17:24;0.70;;;0.22;;
43809;SDS011;29440;48.208;11.162;2022-10-22T15:19:49;1.15;;;0.20;;
43809;SDS011;29440;48.208;11.162;2022-10-22T15:22:17;0.75;;;0.30;;
43809;SDS011;29440;48.208;11.162;2022-10-22T15:24:43;1.05;;;0.30;;
43809;SDS011;29440;48.208;11.162;2022-10-22T15:27:12;1.67;;;0.50;;
43809;SDS011;29440;48.208;11.162;2022-10-22T15:29:38;1.50;;;0.30;;
43809;SDS011;29440;48.208;11.162;2022-10-22T15:32:05;0.80;;;0.22;;
43809;SDS011;29440;48.208;11.162;2022-10-22T15:34:31;1.17;;;0.40;;
43809;SDS011;29440;48.208;11.162;2022-10-22T15:36:58;1.42;;;0.50;;
43809;SDS011;29440;48.208;11.162;2022-10-22T15:39:25;0.88;;;0.40;;
43809;SDS011;29440;48.208;11.162;2022-10-22T15:41:51;2.47;;;0.70;;
43809;SDS011;29440;48.208;11.162;2022-10-22T15:44:22;3.83;;;0.43;;
43809;SDS011;29440;48.208;11.162;2022-10-22T15:46:49;2.25;;;0.60;;
43809;SDS011;29440;48.208;11.162;2022-10-22T15:49:16;2.40;;;0.70;;
43809;SDS011;29440;48.208;11.162;2022-10-22T15:51:42;5.72;;;0.60;;
43809;SDS011;29440;48.208;11.162;2022-10-22T15:54:10;4.57;;;0.50;;
43809;SDS011;29440;48.208;11.162;2022-10-22T15:56:41;2.13;;;0.37;;
43809;SDS011;29440;48.208;11.162;2022-10-22T15:59:08;2.50;;;0.50;;
43809;SDS011;29440;48.208;11.162;2022-10-22T16:01:35;2.33;;;0.50;;
43809;SDS011;29440;48.208;11.162;2022-10-22T16:04:00;1.15;;;0.47;;
43809;SDS011;29440;48.208;11.162;2022-10-22T16:06:40;0.95;;;0.60;;
43809;SDS011;29440;48.208;11.162;2022-10-22T16:09:08;4.28;;;0.70;;
43809;SDS011;29440;48.208;11.162;2022-10-22T16:11:36;3.85;;;1.15;;
43809;SDS011;29440;48.208;11.162;2022-10-22T16:14:02;3.20;;;1.17;;
43809;SDS011;29440;48.208;11.162;2022-10-22T16:16:29;16.33;;;5.60;;
43809;SDS011;29440;48.208;11.162;2022-10-22T16:18:55;16.30;;;5.07;;
43809;SDS011;29440;48.208;11.162;2022-10-22T16:21:21;11.13;;;4.82;;
43809;SDS011;29440;48.208;11.162;2022-10-22T16:23:47;12.32;;;5.63;;
43809;SDS011;29440;48.208;11.162;2022-10-22T16:26:14;17.42;;;6.95;;
43809;SDS011;29440;48.208;11.162;2022-10-22T16:28:41;37.83;;;13.63;;
43809;SDS011;29440;48.208;11.162;2022-10-22T16:31:08;39.67;;;14.65;;
43809;SDS011;29440;48.208;11.162;2022-10-22T16:33:36;38.55;;;14.82;;
43809;SDS011;29440;48.208;11.162;2022-10-22T16:36:06;48.50;;;19.35;;
43809;SDS011;29440;48.208;11.162;2022-10-22T16:38:41;35.72;;;15.07;;
43809;SDS011;29440;48.208;11.162;2022-10-22T16:41:08;30.63;;;12.73;;
43809;SDS011;29440;48.208;11.162;2022-10-22T16:43:35;24.17;;;11.00;;
43809;SDS011;29440;48.208;11.162;2022-10-22T16:46:01;16.20;;;7.90;;
43809;SDS011;29440;48.208;11.162;2022-10-22T16:48:27;11.82;;;5.55;;